Time;durP1;ratioP1;P1;durP2;ratioP2;P2;SDS_P1;SDS_P2;PMS_P1;PMS_P2;Temp;Humidity;BMP_temperature;BMP_pressure;BME280_temperature;BME280_humidity;BME280_pressure;Samples;Min_cycle;Max_cycle;Signal;HPM_P1;HPM_P2
2023/12/01 00:01:49;;;;;;;;;;;4.60;99.90;;;;;;5017793;28;19929;-80
2023/12/01 00:04:17;;;;;;;;;;;4.30;99.90;;;;;;5018611;28;19928;-79
2023/12/01 00:06:45;;;;;;;;;;;4.40;99.90;;;;;;5018541;28;19972;-79
2023/12/01 00:09:14;;;;;;;;;;;4.40;99.90;;;;;;5009900;28;19957;-80
2023/12/01 00:11:42;;;;;;;;;;;4.50;99.90;;;;;;5007099;28;19948;-79
2023/12/01 00:14:09;;;;;;;;;;;4.60;99.90;;;;;;5005703;28;19964;-78
2023/12/01 00:16:37;;;;;;;;;;;4.60;99.90;;;;;;5013761;28;20404;-78
2023/12/01 00:19:05;;;;;;;;;;;4.60;99.90;;;;;;4997622;28;19926;-78
2023/12/01 00:21:33;;;;;;;;;;;4.40;99.90;;;;;;5014123;28;19921;-78
2023/12/01 00:24:01;;;;;;;;;;;4.50;99.90;;;;;;5014212;28;20017;-78
2023/12/01 00:26:30;;;;;;;;;;;4.50;99.90;;;;;;5003349;28;19925;-78
2023/12/01 00:28:58;;;;;;;;;;;4.60;99.90;;;;;;5013610;28;19921;-78
2023/12/01 00:31:26;;;;;;;;;;;4.60;99.90;;;;;;5008906;28;19922;-77
2023/12/01 00:33:54;;;;;;;;;;;4.60;99.90;;;;;;4994245;28;19929;-79
2023/12/01 00:36:21;;;;;;;;;;;4.70;99.90;;;;;;4994929;28;19931;-79
2023/12/01 00:38:49;;;;;;;;;;;4.70;99.90;;;;;;5007775;28;19925;-79
2023/12/01 00:41:17;;;;;;;;;;;4.70;99.90;;;;;;5018213;28;19925;-76
2023/12/01 00:43:46;;;;;;;;;;;4.70;99.90;;;;;;5005179;28;19921;-76
2023/12/01 00:46:14;;;;;;;;;;;4.50;99.90;;;;;;5004870;28;19921;-77
2023/12/01 00:48:42;;;;;;;;;;;4.40;99.90;;;;;;5008068;28;20145;-76
2023/12/01 00:51:15;;;;;;;;;;;4.10;99.90;;;;;;4995658;28;19978;-76
2023/12/01 00:53:43;;;;;;;;;;;4.10;99.90;;;;;;4999993;28;19925;-77
2023/12/01 00:56:11;;;;;;;;;;;4.20;99.90;;;;;;5002617;28;20412;-77
2023/12/01 00:58:38;;;;;;;;;;;3.90;99.90;;;;;;5007781;28;20072;-77
2023/12/01 01:01:08;;;;;;;;;;;3.60;99.90;;;;;;5007014;28;19921;-74
2023/12/01 01:03:35;;;;;;;;;;;3.60;99.90;;;;;;5005800;28;20379;-76
2023/12/01 01:06:04;;;;;;;;;;;3.50;99.90;;;;;;5012770;28;19956;-76
2023/12/01 01:08:31;;;;;;;;;;;3.30;99.90;;;;;;4997305;28;19927;-76
2023/12/01 01:10:59;;;;;;;;;;;3.10;99.90;;;;;;5004940;28;19929;-76
2023/12/01 01:13:28;;;;;;;;;;;3.00;99.90;;;;;;5013083;28;20001;-77
2023/12/01 01:15:57;;;;;;;;;;;2.80;99.90;;;;;;4998366;28;19930;-77
2023/12/01 01:18:26;;;;;;;;;;;2.70;99.90;;;;;;5003589;28;19963;-78
2023/12/01 01:20:54;;;;;;;;;;;2.80;99.90;;;;;;5012577;28;20439;-78
2023/12/01 01:23:22;;;;;;;;;;;2.80;99.90;;;;;;5012476;28;19921;-78
2023/12/01 01:25:49;;;;;;;;;;;2.70;99.90;;;;;;5006735;28;20344;-78
2023/12/01 01:28:18;;;;;;;;;;;2.80;99.90;;;;;;5000938;28;19929;-79
2023/12/01 01:30:46;;;;;;;;;;;2.70;99.90;;;;;;4997611;28;19976;-78
2023/12/01 01:33:14;;;;;;;;;;;2.60;99.90;;;;;;5011738;28;20415;-78
2023/12/01 01:35:43;;;;;;;;;;;2.60;99.90;;;;;;5011212;28;19921;-78
2023/12/01 01:38:11;;;;;;;;;;;2.60;99.90;;;;;;5004301;28;19928;-79
2023/12/01 01:40:38;;;;;;;;;;;2.40;99.90;;;;;;5027432;28;20008;-76
2023/12/01 01:43:06;;;;;;;;;;;2.50;99.90;;;;;;5012936;28;20024;-76
2023/12/01 01:45:34;;;;;;;;;;;2.50;99.90;;;;;;4996696;28;19927;-75
2023/12/01 01:48:02;;;;;;;;;;;2.70;99.90;;;;;;4997160;28;20397;-74
2023/12/01 01:50:30;;;;;;;;;;;2.70;99.90;;;;;;5004584;28;20452;-77
2023/12/01 01:52:59;;;;;;;;;;;2.80;99.90;;;;;;5012198;28;19932;-78
2023/12/01 01:55:27;;;;;;;;;;;2.80;99.90;;;;;;5012178;28;20356;-77
2023/12/01 01:57:56;;;;;;;;;;;2.70;99.90;;;;;;5012426;28;19925;-77
2023/12/01 02:00:24;;;;;;;;;;;2.80;99.90;;;;;;5003674;28;19926;-77
2023/12/01 02:02:52;;;;;;;;;;;2.80;99.90;;;;;;5006374;28;19925;-75
2023/12/01 02:05:20;;;;;;;;;;;2.70;99.90;;;;;;4994955;28;19921;-76
2023/12/01 02:07:49;;;;;;;;;;;2.60;99.90;;;;;;5005679;28;19923;-78
2023/12/01 02:10:18;;;;;;;;;;;2.60;99.90;;;;;;5011692;28;20375;-77
2023/12/01 02:12:46;;;;;;;;;;;2.60;99.90;;;;;;5011773;28;19921;-77
2023/12/01 02:15:14;;;;;;;;;;;2.60;99.90;;;;;;4995221;28;19925;-73
2023/12/01 02:17:41;;;;;;;;;;;2.60;99.90;;;;;;5011885;28;19925;-78
2023/12/01 02:20:14;;;;;;;;;;;2.50;99.90;;;;;;5012013;28;19928;-79
2023/12/01 02:22:45;;;;;;;;;;;2.60;99.90;;;;;;5009983;28;20016;-79
2023/12/01 02:25:14;;;;;;;;;;;2.70;99.90;;;;;;5006269;28;19928;-78
2023/12/01 02:27:42;;;;;;;;;;;2.60;99.90;;;;;;4999435;28;20281;-79
2023/12/01 02:30:10;;;;;;;;;;;2.70;99.90;;;;;;5007498;28;20296;-80
2023/12/01 02:32:39;;;;;;;;;;;2.70;99.90;;;;;;5003718;28;20021;-79
2023/12/01 02:35:09;;;;;;;;;;;2.60;99.90;;;;;;5001704;28;19978;-79
2023/12/01 02:37:38;;;;;;;;;;;2.60;99.90;;;;;;4997559;28;19968;-79
2023/12/01 02:40:14;;;;;;;;;;;2.50;99.90;;;;;;5006086;28;20404;-79
2023/12/01 02:42:47;;;;;;;;;;;2.50;99.90;;;;;;4998174;28;19925;-79
2023/12/01 02:45:15;;;;;;;;;;;2.40;99.90;;;;;;5003801;28;20343;-78
2023/12/01 02:47:45;;;;;;;;;;;2.30;99.90;;;;;;5006408;28;20388;-79
2023/12/01 02:50:13;;;;;;;;;;;2.30;99.90;;;;;;5013085;28;20289;-79
2023/12/01 02:52:41;;;;;;;;;;;2.30;99.90;;;;;;4992959;28;19929;-80
2023/12/01 02:55:11;;;;;;;;;;;2.20;99.90;;;;;;5003698;28;19952;-78
2023/12/01 02:57:39;;;;;;;;;;;2.20;99.90;;;;;;5000041;28;19921;-76
2023/12/01 03:00:13;;;;;;;;;;;2.20;99.90;;;;;;4999262;28;19922;-76
2023/12/01 03:02:41;;;;;;;;;;;2.10;99.90;;;;;;5003886;28;19922;-76
2023/12/01 03:05:09;;;;;;;;;;;2.20;99.90;;;;;;5010982;28;20437;-76
2023/12/01 03:07:37;;;;;;;;;;;2.10;99.90;;;;;;5015174;28;20024;-76
2023/12/01 03:10:05;;;;;;;;;;;2.20;99.90;;;;;;5015274;28;20016;-76
2023/12/01 03:12:34;;;;;;;;;;;2.30;99.90;;;;;;5013320;28;19929;-77
2023/12/01 03:15:02;;;;;;;;;;;2.30;99.90;;;;;;5015078;28;20410;-76
2023/12/01 03:17:36;;;;;;;;;;;2.30;99.90;;;;;;5012647;28;19975;-77
2023/12/01 03:20:09;;;;;;;;;;;2.30;99.90;;;;;;5003057;28;20012;-78
2023/12/01 03:22:38;;;;;;;;;;;2.30;99.90;;;;;;4995184;28;19984;-78
2023/12/01 03:25:09;;;;;;;;;;;2.40;99.90;;;;;;5001731;28;20467;-78
2023/12/01 03:27:40;;;;;;;;;;;2.40;99.90;;;;;;5014682;28;20008;-79
2023/12/01 03:30:13;;;;;;;;;;;2.40;99.90;;;;;;5006700;28;20000;-80
2023/12/01 03:32:44;;;;;;;;;;;2.20;99.90;;;;;;5014232;28;20396;-77
2023/12/01 03:35:12;;;;;;;;;;;2.40;99.90;;;;;;5014545;28;19928;-76
2023/12/01 03:37:40;;;;;;;;;;;2.40;99.90;;;;;;5003498;28;19922;-76
2023/12/01 03:40:12;;;;;;;;;;;2.40;99.90;;;;;;5004440;28;20300;-76
2023/12/01 03:42:42;;;;;;;;;;;2.40;99.90;;;;;;4998244;28;20009;-76
2023/12/01 03:45:12;;;;;;;;;;;2.20;99.90;;;;;;5006706;28;19921;-76
2023/12/01 03:47:40;;;;;;;;;;;2.20;99.90;;;;;;5005438;28;19958;-77
2023/12/01 03:50:11;;;;;;;;;;;2.10;99.90;;;;;;5014496;28;19926;-76
2023/12/01 03:52:41;;;;;;;;;;;2.10;99.90;;;;;;5006263;28;19921;-76
2023/12/01 03:55:09;;;;;;;;;;;2.10;99.90;;;;;;5014595;28;19964;-76
2023/12/01 03:57:37;;;;;;;;;;;2.00;99.90;;;;;;5005819;28;19922;-76
2023/12/01 04:00:08;;;;;;;;;;;2.20;99.90;;;;;;5013836;28;19931;-76
2023/12/01 04:02:40;;;;;;;;;;;2.30;99.90;;;;;;5012802;28;19926;-77
2023/12/01 04:05:09;;;;;;;;;;;2.30;99.90;;;;;;5005523;28;19921;-76
2023/12/01 04:07:45;;;;;;;;;;;2.50;99.90;;;;;;5010778;28;19932;-76
2023/12/01 04:10:13;;;;;;;;;;;2.60;99.90;;;;;;5009662;28;19921;-77
2023/12/01 04:12:44;;;;;;;;;;;2.70;99.90;;;;;;5014125;28;19922;-78
2023/12/01 04:15:15;;;;;;;;;;;2.90;99.90;;;;;;5014300;28;20376;-76
2023/12/01 04:17:45;;;;;;;;;;;2.70;99.90;;;;;;5005836;28;20375;-78
2023/12/01 04:20:25;;;;;;;;;;;2.60;99.90;;;;;;5014695;28;20008;-77
2023/12/01 04:22:55;;;;;;;;;;;2.50;99.90;;;;;;5009860;28;19957;-78
2023/12/01 04:25:22;;;;;;;;;;;2.40;99.90;;;;;;5010256;28;20380;-77
2023/12/01 04:27:51;;;;;;;;;;;2.30;99.90;;;;;;5006277;28;19928;-75
2023/12/01 04:30:22;;;;;;;;;;;2.40;99.90;;;;;;5006511;28;19976;-76
2023/12/01 04:32:52;;;;;;;;;;;2.40;99.90;;;;;;5001034;28;19929;-76
2023/12/01 04:35:24;;;;;;;;;;;2.40;99.90;;;;;;5013426;28;20015;-76
2023/12/01 04:37:52;;;;;;;;;;;2.40;99.90;;;;;;5021540;28;19928;-77
2023/12/01 04:40:19;;;;;;;;;;;2.40;99.90;;;;;;5021481;28;19975;-75
2023/12/01 04:42:48;;;;;;;;;;;2.30;99.90;;;;;;5014243;28;20430;-77
2023/12/01 04:45:16;;;;;;;;;;;2.20;99.90;;;;;;5013995;28;19975;-76
2023/12/01 04:47:46;;;;;;;;;;;2.10;99.90;;;;;;5010768;28;20493;-76
2023/12/01 04:50:14;;;;;;;;;;;2.10;99.90;;;;;;4999671;28;19921;-75
2023/12/01 04:52:43;;;;;;;;;;;2.10;99.90;;;;;;5011942;28;19929;-76
2023/12/01 04:55:12;;;;;;;;;;;2.20;99.90;;;;;;5006649;28;19922;-78
2023/12/01 04:57:40;;;;;;;;;;;2.30;99.90;;;;;;5001317;28;20337;-77
2023/12/01 05:00:18;;;;;;;;;;;2.20;99.90;;;;;;4998809;28;20273;-77
2023/12/01 05:02:48;;;;;;;;;;;2.30;99.90;;;;;;4996613;28;20035;-78
2023/12/01 05:05:17;;;;;;;;;;;2.30;99.90;;;;;;5013048;28;19933;-77
2023/12/01 05:07:45;;;;;;;;;;;2.40;99.90;;;;;;5012965;28;19929;-77
2023/12/01 05:10:15;;;;;;;;;;;2.50;99.90;;;;;;5013895;28;20435;-77
2023/12/01 05:12:44;;;;;;;;;;;2.50;99.90;;;;;;5013417;28;20415;-78
2023/12/01 05:15:16;;;;;;;;;;;2.50;99.90;;;;;;5013523;28;19928;-79
2023/12/01 05:17:44;;;;;;;;;;;2.30;99.90;;;;;;5011544;28;20505;-79
2023/12/01 05:20:17;;;;;;;;;;;2.40;99.90;;;;;;5000345;28;20380;-78
2023/12/01 05:22:45;;;;;;;;;;;2.30;99.90;;;;;;5005315;28;19921;-77
2023/12/01 05:25:14;;;;;;;;;;;2.30;99.90;;;;;;5003420;28;20385;-77
2023/12/01 05:27:44;;;;;;;;;;;2.20;99.90;;;;;;5002145;28;19921;-77
2023/12/01 05:30:13;;;;;;;;;;;2.10;99.90;;;;;;5000794;28;19922;-78
2023/12/01 05:32:42;;;;;;;;;;;2.30;99.90;;;;;;4993905;28;19922;-77
2023/12/01 05:35:12;;;;;;;;;;;2.60;99.90;;;;;;5012180;28;19931;-74
2023/12/01 05:37:46;;;;;;;;;;;2.50;99.90;;;;;;5010553;28;19921;-73
2023/12/01 05:40:15;;;;;;;;;;;2.40;99.90;;;;;;5003308;28;19921;-72
2023/12/01 05:42:43;;;;;;;;;;;2.30;99.90;;;;;;5001016;28;19928;-72
2023/12/01 05:45:12;;;;;;;;;;;2.20;99.90;;;;;;5001116;28;20362;-72
2023/12/01 05:47:43;;;;;;;;;;;2.10;99.90;;;;;;4983362;28;19925;-71
2023/12/01 05:50:13;;;;;;;;;;;2.10;99.90;;;;;;5000873;28;20000;-74
2023/12/01 05:52:42;;;;;;;;;;;2.10;99.90;;;;;;5000143;28;19929;-73
2023/12/01 05:55:14;;;;;;;;;;;2.10;99.90;;;;;;5000921;28;19925;-73
2023/12/01 05:57:44;;;;;;;;;;;2.00;99.90;;;;;;5000306;28;19922;-73
2023/12/01 06:00:15;;;;;;;;;;;2.00;99.90;;;;;;5000978;28;19929;-73
2023/12/01 06:02:43;;;;;;;;;;;2.00;99.90;;;;;;5001240;28;19921;-70
2023/12/01 06:05:12;;;;;;;;;;;2.00;99.90;;;;;;5000770;28;19940;-72
2023/12/01 06:07:45;;;;;;;;;;;1.90;99.90;;;;;;5000941;28;19925;-72
2023/12/01 06:10:13;;;;;;;;;;;1.90;99.90;;;;;;5000877;28;19921;-73
2023/12/01 06:12:41;;;;;;;;;;;1.90;99.90;;;;;;4999837;28;19936;-73
2023/12/01 06:15:10;;;;;;;;;;;1.90;99.90;;;;;;5000547;28;19929;-73
2023/12/01 06:17:38;;;;;;;;;;;1.90;99.90;;;;;;5000565;28;19930;-74
2023/12/01 06:20:16;;;;;;;;;;;1.90;99.90;;;;;;5000628;28;19937;-72
2023/12/01 06:22:47;;;;;;;;;;;2.00;99.90;;;;;;4999613;28;20415;-72
2023/12/01 06:25:15;;;;;;;;;;;1.90;99.90;;;;;;5001501;28;19937;-74
2023/12/01 06:27:43;;;;;;;;;;;2.00;99.90;;;;;;5000473;28;20019;-73
2023/12/01 06:30:12;;;;;;;;;;;1.90;99.90;;;;;;5000986;28;19925;-71
2023/12/01 06:32:40;;;;;;;;;;;1.90;99.90;;;;;;5000521;28;19933;-73
2023/12/01 06:35:09;;;;;;;;;;;1.90;99.90;;;;;;5002319;28;19952;-71
2023/12/01 06:37:37;;;;;;;;;;;1.80;99.90;;;;;;5003901;28;19979;-71
2023/12/01 06:40:11;;;;;;;;;;;1.80;99.90;;;;;;5004824;28;19936;-71
2023/12/01 06:42:40;;;;;;;;;;;1.80;99.90;;;;;;5004214;28;20028;-73
2023/12/01 06:45:10;;;;;;;;;;;1.80;99.90;;;;;;5004292;28;19929;-73
2023/12/01 06:47:38;;;;;;;;;;;1.80;99.90;;;;;;5004269;28;19937;-71
2023/12/01 06:50:07;;;;;;;;;;;1.80;99.90;;;;;;5004458;28;19930;-71
2023/12/01 06:52:34;;;;;;;;;;;1.80;99.90;;;;;;5004151;28;19925;-74
2023/12/01 06:55:03;;;;;;;;;;;1.90;99.90;;;;;;5003878;28;19929;-72
2023/12/01 06:57:33;;;;;;;;;;;1.80;99.90;;;;;;5004367;28;19948;-71
2023/12/01 07:00:00;;;;;;;;;;;1.90;99.90;;;;;;5004153;28;19929;-74
2023/12/01 07:02:30;;;;;;;;;;;2.00;99.90;;;;;;5003795;28;19991;-74
2023/12/01 07:04:58;;;;;;;;;;;2.00;99.90;;;;;;5003342;28;19936;-73
2023/12/01 07:07:30;;;;;;;;;;;2.00;99.90;;;;;;5006145;28;19922;-71
2023/12/01 07:09:58;;;;;;;;;;;2.00;99.90;;;;;;5011736;28;19922;-71
2023/12/01 07:12:26;;;;;;;;;;;2.00;99.90;;;;;;5010751;28;19964;-72
2023/12/01 07:14:55;;;;;;;;;;;1.90;99.90;;;;;;5015291;28;19921;-76
2023/12/01 07:17:23;;;;;;;;;;;1.90;99.90;;;;;;5014332;28;19921;-71
2023/12/01 07:19:51;;;;;;;;;;;2.00;99.90;;;;;;5013160;28;19921;-71
2023/12/01 07:22:18;;;;;;;;;;;2.00;99.90;;;;;;5008180;28;20308;-72
2023/12/01 07:24:46;;;;;;;;;;;2.00;99.90;;;;;;4999100;28;19929;-73
2023/12/01 07:27:14;;;;;;;;;;;2.00;99.90;;;;;;5006683;28;19921;-71
2023/12/01 07:29:42;;;;;;;;;;;1.90;99.90;;;;;;4997912;28;19984;-71
2023/12/01 07:32:11;;;;;;;;;;;1.90;99.90;;;;;;5009537;28;19921;-72
2023/12/01 07:34:38;;;;;;;;;;;2.00;99.90;;;;;;5005083;28;19980;-73
2023/12/01 07:37:10;;;;;;;;;;;1.90;99.90;;;;;;5002979;28;20385;-71
2023/12/01 07:39:38;;;;;;;;;;;1.90;99.90;;;;;;5010827;28;19949;-71
2023/12/01 07:42:07;;;;;;;;;;;1.90;99.90;;;;;;5013892;28;20344;-71
2023/12/01 07:44:35;;;;;;;;;;;1.90;99.90;;;;;;5014149;28;19927;-73
2023/12/01 07:47:07;;;;;;;;;;;1.90;99.90;;;;;;5004725;28;19921;-69
2023/12/01 07:49:36;;;;;;;;;;;1.90;99.90;;;;;;5002862;28;19921;-71
2023/12/01 07:52:06;;;;;;;;;;;2.00;99.90;;;;;;5010647;28;20012;-71
2023/12/01 07:54:35;;;;;;;;;;;2.00;99.90;;;;;;4994580;28;19930;-70
2023/12/01 07:57:04;;;;;;;;;;;2.00;99.90;;;;;;5013486;28;19921;-71
2023/12/01 07:59:32;;;;;;;;;;;2.00;99.90;;;;;;4999322;28;19945;-73
2023/12/01 08:02:00;;;;;;;;;;;2.00;99.90;;;;;;5000490;28;19989;-71
2023/12/01 08:04:30;;;;;;;;;;;2.00;99.90;;;;;;5013122;28;19921;-73
2023/12/01 08:06:59;;;;;;;;;;;2.00;99.90;;;;;;4997227;28;20014;-70
2023/12/01 08:09:31;;;;;;;;;;;2.00;99.90;;;;;;5007979;28;19921;-71
2023/12/01 08:11:59;;;;;;;;;;;2.00;99.90;;;;;;5012601;28;19921;-71
2023/12/01 08:14:29;;;;;;;;;;;2.00;99.90;;;;;;4999560;28;19949;-71
2023/12/01 08:16:56;;;;;;;;;;;2.00;99.90;;;;;;5001615;28;19928;-70
2023/12/01 08:19:24;;;;;;;;;;;2.00;99.90;;;;;;4999440;28;19922;-71
2023/12/01 08:21:52;;;;;;;;;;;2.10;99.90;;;;;;5005455;28;19952;-71
2023/12/01 08:24:22;;;;;;;;;;;2.00;99.90;;;;;;5001162;28;19956;-71
2023/12/01 08:27:00;;;;;;;;;;;2.10;99.90;;;;;;5011736;28;19925;-74
2023/12/01 08:29:27;;;;;;;;;;;2.00;99.90;;;;;;5013607;28;19921;-71
2023/12/01 08:31:57;;;;;;;;;;;2.10;99.90;;;;;;5009310;28;19929;-71
2023/12/01 08:34:25;;;;;;;;;;;2.00;99.90;;;;;;5005153;28;19921;-71
2023/12/01 08:36:53;;;;;;;;;;;2.00;99.90;;;;;;5010931;28;20360;-70
2023/12/01 08:39:23;;;;;;;;;;;2.00;99.90;;;;;;5001813;28;19928;-71
2023/12/01 08:41:53;;;;;;;;;;;2.00;99.90;;;;;;5010231;28;19922;-70
2023/12/01 08:44:21;;;;;;;;;;;2.00;99.90;;;;;;5004903;28;20351;-71
2023/12/01 08:46:49;;;;;;;;;;;2.10;99.90;;;;;;5013003;28;19921;-71
2023/12/01 08:49:17;;;;;;;;;;;2.10;99.90;;;;;;5001099;28;19925;-72
2023/12/01 08:51:44;;;;;;;;;;;2.10;99.90;;;;;;4993798;28;19922;-71
2023/12/01 08:54:12;;;;;;;;;;;2.10;99.90;;;;;;4993420;28;19922;-71
2023/12/01 08:56:49;;;;;;;;;;;2.10;99.90;;;;;;5009497;28;20308;-71
2023/12/01 08:59:17;;;;;;;;;;;2.20;99.90;;;;;;5005465;28;19925;-71
2023/12/01 09:01:45;;;;;;;;;;;2.20;99.90;;;;;;5012933;28;19921;-72
2023/12/01 09:04:13;;;;;;;;;;;2.20;99.90;;;;;;5004559;28;20401;-72
2023/12/01 09:06:41;;;;;;;;;;;2.20;99.90;;;;;;4997522;28;19957;-69
2023/12/01 09:09:09;;;;;;;;;;;2.30;99.90;;;;;;5007154;28;19928;-71
2023/12/01 09:11:37;;;;;;;;;;;2.30;99.90;;;;;;5006272;28;19922;-71
2023/12/01 09:14:06;;;;;;;;;;;2.30;99.90;;;;;;5001770;28;20416;-71
2023/12/01 09:16:34;;;;;;;;;;;2.40;99.90;;;;;;5006752;28;19921;-72
2023/12/01 09:19:02;;;;;;;;;;;2.40;99.90;;;;;;5011135;28;20627;-71
2023/12/01 09:21:33;;;;;;;;;;;2.40;99.90;;;;;;5007307;28;19964;-71
2023/12/01 09:24:01;;;;;;;;;;;2.40;99.90;;;;;;5010996;28;20435;-72
2023/12/01 09:26:29;;;;;;;;;;;2.40;99.90;;;;;;5005165;28;19926;-72
2023/12/01 09:28:57;;;;;;;;;;;2.20;99.90;;;;;;5003238;28;19922;-71
2023/12/01 09:31:26;;;;;;;;;;;2.20;99.90;;;;;;5005032;28;20401;-73
2023/12/01 09:33:54;;;;;;;;;;;2.20;99.90;;;;;;5001407;28;19921;-70
2023/12/01 09:36:22;;;;;;;;;;;2.10;99.90;;;;;;5004092;28;20281;-71
2023/12/01 09:38:49;;;;;;;;;;;2.10;99.90;;;;;;4996453;28;19929;-71
2023/12/01 09:41:18;;;;;;;;;;;2.10;99.90;;;;;;5004179;28;19999;-70
2023/12/01 09:43:47;;;;;;;;;;;2.10;99.90;;;;;;5004980;28;19922;-73
2023/12/01 09:46:17;;;;;;;;;;;2.00;99.90;;;;;;5000353;28;19925;-71
2023/12/01 09:48:46;;;;;;;;;;;2.10;99.90;;;;;;4999444;28;20425;-71
2023/12/01 09:51:14;;;;;;;;;;;2.10;99.90;;;;;;5008953;28;19922;-70
2023/12/01 09:53:42;;;;;;;;;;;2.10;99.90;;;;;;5000614;28;20396;-71
2023/12/01 09:56:11;;;;;;;;;;;2.10;99.90;;;;;;5002553;28;19935;-71
2023/12/01 09:58:39;;;;;;;;;;;2.10;99.90;;;;;;4998021;28;19997;-71
2023/12/01 10:01:07;;;;;;;;;;;2.10;99.90;;;;;;5008434;28;19921;-71
2023/12/01 10:03:35;;;;;;;;;;;2.10;99.90;;;;;;4997800;28;20380;-71
2023/12/01 10:06:04;;;;;;;;;;;2.10;99.90;;;;;;5002103;28;20380;-71
2023/12/01 10:08:33;;;;;;;;;;;2.00;99.90;;;;;;4997278;28;20277;-71
2023/12/01 10:11:00;;;;;;;;;;;2.00;99.90;;;;;;4995251;28;19922;-69
2023/12/01 10:13:39;;;;;;;;;;;2.00;99.90;;;;;;5011815;28;19922;-70
2023/12/01 10:16:07;;;;;;;;;;;2.00;99.90;;;;;;5001941;28;20364;-71
2023/12/01 10:18:34;;;;;;;;;;;2.00;99.90;;;;;;4998130;28;19921;-70
2023/12/01 10:21:07;;;;;;;;;;;2.10;99.90;;;;;;5033811;22;20425;-67
2023/12/01 10:23:36;;;;;;;;;;;2.20;99.90;;;;;;5030774;28;19921;-65
2023/12/01 10:26:06;;;;;;;;;;;2.20;99.90;;;;;;5030338;28;19921;-68
2023/12/01 10:28:39;;;;;;;;;;;2.20;99.90;;;;;;5030748;28;19936;-69
2023/12/01 10:31:07;;;;;;;;;;;2.20;99.90;;;;;;5030478;28;19983;-68
2023/12/01 10:33:36;;;;;;;;;;;2.20;99.90;;;;;;5031028;28;20415;-67
2023/12/01 10:36:06;;;;;;;;;;;2.20;99.90;;;;;;5030654;28;19964;-66
2023/12/01 10:38:34;;;;;;;;;;;2.20;99.90;;;;;;5030894;28;19928;-67
2023/12/01 10:41:03;;;;;;;;;;;2.30;99.90;;;;;;5030775;28;19921;-67
2023/12/01 10:43:31;;;;;;;;;;;2.30;99.90;;;;;;5030943;28;19921;-67
2023/12/01 10:46:00;;;;;;;;;;;2.30;99.90;;;;;;5030619;28;19920;-67
2023/12/01 10:48:29;;;;;;;;;;;2.30;99.90;;;;;;5030452;28;19921;-67
2023/12/01 10:50:57;;;;;;;;;;;2.30;99.90;;;;;;5030831;28;20307;-68
2023/12/01 10:53:29;;;;;;;;;;;2.30;99.90;;;;;;5023040;28;19943;-69
2023/12/01 10:56:00;;;;;;;;;;;2.30;99.90;;;;;;5030496;28;20396;-66
2023/12/01 10:58:28;;;;;;;;;;;2.30;99.90;;;;;;5023072;28;19971;-68
2023/12/01 11:00:57;;;;;;;;;;;2.30;99.90;;;;;;5030701;28;19921;-66
2023/12/01 11:03:29;;;;;;;;;;;2.30;99.90;;;;;;5022716;28;19921;-66
2023/12/01 11:06:01;;;;;;;;;;;2.30;99.90;;;;;;5030186;28;19925;-66
2023/12/01 11:08:36;;;;;;;;;;;2.30;99.90;;;;;;5022913;28;20032;-66
2023/12/01 11:11:11;;;;;;;;;;;2.20;99.90;;;;;;5030339;28;19921;-67
2023/12/01 11:13:47;;;;;;;;;;;2.20;99.90;;;;;;5030854;28;19921;-66
2023/12/01 11:16:16;;;;;;;;;;;2.30;99.90;;;;;;5030322;28;19921;-65
2023/12/01 11:18:44;;;;;;;;;;;2.30;99.90;;;;;;5030207;28;19936;-66
2023/12/01 11:21:12;;;;;;;;;;;2.30;99.90;;;;;;5021861;28;19976;-65
2023/12/01 11:23:41;;;;;;;;;;;2.30;99.90;;;;;;5034317;28;19954;-66
2023/12/01 11:26:10;;;;;;;;;;;2.30;99.90;;;;;;5033886;28;19921;-66
2023/12/01 11:28:46;;;;;;;;;;;2.40;99.90;;;;;;5034066;28;19921;-66
2023/12/01 11:31:18;;;;;;;;;;;2.30;99.90;;;;;;5033734;28;19987;-66
2023/12/01 11:33:47;;;;;;;;;;;2.50;99.90;;;;;;5034118;28;19943;-65
2023/12/01 11:36:22;;;;;;;;;;;2.50;99.90;;;;;;5033082;28;19925;-65
2023/12/01 11:39:11;;;;;;;;;;;2.60;99.90;;;;;;5010967;28;19921;-66
2023/12/01 11:41:44;;;;;;;;;;;2.70;99.90;;;;;;5027094;28;19921;-65
2023/12/01 11:44:12;;;;;;;;;;;2.70;99.90;;;;;;5033725;28;19920;-67
2023/12/01 11:46:40;;;;;;;;;;;2.70;99.90;;;;;;5033837;28;20440;-68
2023/12/01 11:49:09;;;;;;;;;;;2.70;99.90;;;;;;5033123;28;20400;-68
2023/12/01 11:51:37;;;;;;;;;;;2.70;99.90;;;;;;5033338;28;19968;-66
2023/12/01 11:54:05;;;;;;;;;;;2.80;99.90;;;;;;5033380;28;19925;-65
2023/12/01 11:56:33;;;;;;;;;;;2.80;99.90;;;;;;5028868;28;20300;-66
2023/12/01 11:59:02;;;;;;;;;;;2.70;99.90;;;;;;5028240;28;19921;-68
2023/12/01 12:01:32;;;;;;;;;;;2.60;99.90;;;;;;5032386;28;19925;-65
2023/12/01 12:03:59;;;;;;;;;;;2.50;99.90;;;;;;5028272;28;19971;-65
2023/12/01 12:06:28;;;;;;;;;;;2.50;99.90;;;;;;5033207;28;19921;-65
2023/12/01 12:08:56;;;;;;;;;;;2.40;99.90;;;;;;5033194;28;19951;-66
2023/12/01 12:11:24;;;;;;;;;;;2.50;99.90;;;;;;5033139;28;19921;-66
2023/12/01 12:13:55;;;;;;;;;;;2.40;99.90;;;;;;5033088;28;20008;-66
2023/12/01 12:16:24;;;;;;;;;;;2.40;99.90;;;;;;5032977;28;19921;-65
2023/12/01 12:18:52;;;;;;;;;;;2.40;99.90;;;;;;5033083;28;19921;-66
2023/12/01 12:21:20;;;;;;;;;;;2.30;99.90;;;;;;5032769;28;19928;-66
2023/12/01 12:23:48;;;;;;;;;;;2.30;99.90;;;;;;5033130;28;20392;-66
2023/12/01 12:26:17;;;;;;;;;;;2.20;99.90;;;;;;5032740;28;20380;-68
2023/12/01 12:28:47;;;;;;;;;;;2.20;99.90;;;;;;5032500;28;20043;-65
2023/12/01 12:31:15;;;;;;;;;;;2.20;99.90;;;;;;5032756;28;19932;-66
2023/12/01 12:33:44;;;;;;;;;;;2.20;99.90;;;;;;5032428;28;19971;-66
2023/12/01 12:36:13;;;;;;;;;;;2.20;99.90;;;;;;5032484;28;19921;-65
2023/12/01 12:38:41;;;;;;;;;;;2.10;99.90;;;;;;5032850;28;19921;-66
2023/12/01 12:41:20;;;;;;;;;;;2.20;99.90;;;;;;5032380;28;19921;-67
2023/12/01 12:43:50;;;;;;;;;;;2.20;99.90;;;;;;5032170;28;20411;-65
2023/12/01 12:46:18;;;;;;;;;;;2.10;99.90;;;;;;5032245;28;19925;-66
2023/12/01 12:48:47;;;;;;;;;;;2.10;99.90;;;;;;5032419;28;19921;-65
2023/12/01 12:51:17;;;;;;;;;;;2.10;99.90;;;;;;5032320;28;20023;-68
2023/12/01 12:53:45;;;;;;;;;;;2.10;99.90;;;;;;5032519;28;20012;-65
2023/12/01 12:56:13;;;;;;;;;;;2.00;99.90;;;;;;5032163;28;19921;-65
2023/12/01 12:58:42;;;;;;;;;;;2.00;99.90;;;;;;5032379;28;20406;-66
2023/12/01 13:01:10;;;;;;;;;;;2.00;99.90;;;;;;5032194;28;20303;-67
2023/12/01 13:03:38;;;;;;;;;;;2.00;99.90;;;;;;5031226;28;19921;-67
2023/12/01 13:06:08;;;;;;;;;;;2.10;99.90;;;;;;5028166;28;20285;-67
2023/12/01 13:08:37;;;;;;;;;;;2.10;99.90;;;;;;5023882;28;19925;-65
2023/12/01 13:11:06;;;;;;;;;;;2.20;99.90;;;;;;5031745;28;19932;-66
2023/12/01 13:13:35;;;;;;;;;;;2.10;99.90;;;;;;5028775;28;20372;-65
2023/12/01 13:16:03;;;;;;;;;;;2.10;99.90;;;;;;5027371;28;19925;-66
2023/12/01 13:18:31;;;;;;;;;;;2.10;99.90;;;;;;5031846;28;20012;-68
2023/12/01 13:20:59;;;;;;;;;;;2.10;99.90;;;;;;5030973;28;20007;-66
2023/12/01 13:23:28;;;;;;;;;;;2.10;99.90;;;;;;5031737;28;19928;-68
2023/12/01 13:25:56;;;;;;;;;;;2.10;99.90;;;;;;5031779;28;19921;-65
2023/12/01 13:28:24;;;;;;;;;;;2.00;99.90;;;;;;5031652;28;19928;-66
2023/12/01 13:30:53;;;;;;;;;;;2.00;99.90;;;;;;5031738;28;19999;-66
2023/12/01 13:33:21;;;;;;;;;;;2.00;99.90;;;;;;5031420;28;20295;-66
2023/12/01 13:35:50;;;;;;;;;;;2.10;99.90;;;;;;5031644;28;20008;-66
2023/12/01 13:38:17;;;;;;;;;;;2.10;99.90;;;;;;5031489;28;19921;-66
2023/12/01 13:40:46;;;;;;;;;;;2.10;99.90;;;;;;5031038;28;19983;-66
2023/12/01 13:43:14;;;;;;;;;;;2.10;99.90;;;;;;5031233;28;19974;-68
2023/12/01 13:45:42;;;;;;;;;;;2.00;99.90;;;;;;5030887;28;19925;-69
2023/12/01 13:48:10;;;;;;;;;;;2.00;99.90;;;;;;5031432;28;19921;-68
2023/12/01 13:50:38;;;;;;;;;;;2.00;99.90;;;;;;5030958;28;19928;-66
2023/12/01 13:53:06;;;;;;;;;;;2.00;99.90;;;;;;5031475;28;20544;-66
2023/12/01 13:55:34;;;;;;;;;;;2.00;99.90;;;;;;5030856;28;19921;-66
2023/12/01 13:58:03;;;;;;;;;;;2.00;99.90;;;;;;5031524;28;19921;-66
2023/12/01 14:00:32;;;;;;;;;;;1.90;99.90;;;;;;5030960;28;19921;-66
2023/12/01 14:03:00;;;;;;;;;;;1.90;99.90;;;;;;5031295;28;19925;-66
2023/12/01 14:05:28;;;;;;;;;;;1.90;99.90;;;;;;5030521;28;19928;-66
2023/12/01 14:07:56;;;;;;;;;;;1.90;99.90;;;;;;5031426;28;19921;-67
2023/12/01 14:10:24;;;;;;;;;;;2.00;99.90;;;;;;5030223;28;20311;-68
2023/12/01 14:12:52;;;;;;;;;;;2.00;99.90;;;;;;5024601;28;19927;-66
2023/12/01 14:15:21;;;;;;;;;;;2.00;99.90;;;;;;5030866;28;19933;-69
2023/12/01 14:17:49;;;;;;;;;;;2.00;99.90;;;;;;5031173;28;19921;-66
2023/12/01 14:20:17;;;;;;;;;;;2.00;99.90;;;;;;5030618;28;20517;-66
2023/12/01 14:22:45;;;;;;;;;;;1.90;99.90;;;;;;5023379;28;19924;-66
2023/12/01 14:25:13;;;;;;;;;;;1.90;99.90;;;;;;5030890;28;19920;-67
2023/12/01 14:27:41;;;;;;;;;;;1.90;99.90;;;;;;5030822;28;19921;-66
2023/12/01 14:30:09;;;;;;;;;;;1.80;99.90;;;;;;5030696;28;19921;-66
2023/12/01 14:32:39;;;;;;;;;;;1.70;99.90;;;;;;5029649;28;19935;-66
2023/12/01 14:35:08;;;;;;;;;;;1.70;99.90;;;;;;5030874;28;20454;-66
2023/12/01 14:37:36;;;;;;;;;;;1.70;99.90;;;;;;5030722;28;19921;-66
2023/12/01 14:40:04;;;;;;;;;;;1.70;99.90;;;;;;5030851;28;19921;-66
2023/12/01 14:42:34;;;;;;;;;;;1.70;99.90;;;;;;5030622;28;20304;-65